Hikone, Japan

12:19 PM JST on July 25, 2016 (GMT +0900)
Nagoya / Chubu | | Change Station

Elev 16 ft 34.86 °N, 136.81 °E | Updated 19 minutes ago

Partly Cloudy
Partly Cloudy
81 °F
Feels Like 83 °F
N
9
Wind Variable Wind from South

Today
High -- | Low -- °F
--% Chance of Precip.
Yesterday
High -- | Low -- °F
Precip. -- in
Pressure 29.92 in
Visibility 6.2 miles
Clouds Few 1500 ft
Heat Index 83 °F
Dew Point 66 °F
Humidity 61%
Rainfall 0.00 in
Snow Depth Not available.
4:58 AM 7:04 PM
Waning Gibbous, 70% visible
METAR RJGG 250300Z 19008KT 9999 FEW015 BKN/// 27/19 Q1013 NOSIG
Pressure 29.92 in
Visibility 6.2 miles
Clouds Few 1500 ft
Heat Index 83 °F
Dew Point 66 °F
Humidity 61%
Rainfall 0.00 in
Snow Depth Not available.
4:58 AM 7:04 PM
Waning Gibbous, 70% visible
METAR RJGG 250300Z 19008KT 9999 FEW015 BKN/// 27/19 Q1013 NOSIG

10-Day Weather Forecast

No radar image for this location.
×

Almanac

Astronomy

Jul. 25, 2016 Rise Set
Actual Time
Civil Twilight
Nautical Twilight
Astronomical Twilight
Moon
Length of Visible Light
Length of Day
Tomorrow will be .
, % of the Moon is Illuminated

Today's Extremes

Country Highs Country Lows

Community

WunderPhotos

Upload Photos

1,927,253 photos uploaded!

WunderBlog® & News

Nearby

Air Quality

  Air Quality AQ Index Pollutant
Not available.

Snow Depth

Station Depth Elevation

Earthquake Activity

City Distance Mag. Time & Date
Minimum magnitude displayed is 2.5.

Coastal Water Temperatures

Place Temperature

Stations

Nearby Weather Stations

Station Location Temp. Windchill Dew Point Humidity Wind Precip. Elev Updated Type